VTBS METAR and TAF | Updated Today

VTBS METAR

Suvarnabhumi Airport

Observation time: 18 min. ago

VTBS 052030Z 21005KT 9999 FEW020 27/23 Q1009 NOSIG

Need help? Read our tutorial on how to read METARs or read the parsed version below.

Suvarnabhumi Airport (VTBS) METAR

  • Weather conditions on Sun, 05 Feb 2023 20:30:00 +0000 (18 min. ago):
  • Present conditions: Dry
  • Clouds: A few at 610 meters
  • Visibility: Greater than 10 km
  • Wind: 210 degrees at 5 knots
  • Temperature: 27 celsius
  • Dew point: 23 celsius
  • Pressure: 1009 millibars
  • Remarks: None


Useful to know...

VTBS TAF

Suvarnabhumi Airport

TAF VTBS 051700Z 0518/0624 21008KT 9999 FEW020
Observation time: 3:48 hr. ago
Need help? Read our tutorial on how to read TAFs or read the parsed version below.

Parsed version of TAF for Suvarnabhumi Airport (VTBS)

  • From 05 February at 18:00 UTC, to day 06 of the month at 24:00 UTC
  • Clouds: A few at 610 meters
  • Visibility: Greater than 10 km
  • Wind: 210 degrees at 8